西安 の空港の天気 - METARとTAF

西安咸陽国際空港 ( ZLXY / XIY ) - 中国 陝西省西安市
飛行場実況気象(Metar)
観測時間10/18 09:00 CST (10/18 01:00 UTC)
風向・風速北東 8m/s
視程4000m
天気現象煙霧
なし
気温15℃
湿度59%
気圧1019hPa
METARZLXY 180100Z 05008MPS 010V070 4000 HZ NSC 15/07 Q1019 NOSIG
過去の天気等 Google飛行場航空写真 Wunderground天気予報

過去48時間のMETAR

飛行場予報(TAF)
発表時間: 10/18 03:14 CST (10/17 19:14 UTC)
予報対象時間: 18日8時 CST ~ 19日8時 CST
風向・風速東北東 5m/s 瞬間風速 10m/s
視程3000m
天気現象煙霧
なし
TAF ZLXY 171914Z 1800/1824 06005G10MPS 3000 HZ NSC TX20/1807Z TN11/1822Z